Ana Sayfa
METAR-TAF:

METAR-TAF

Havaalanları :

Şam Havalimanı

Şam, Suriye

Enlem: 33-25N, Boylam: 036-31E, yükseklik: 608 m

Güncel hava durumu gözlemi

Rapor saat 11:00 UTC de 1 saat ve 24 dakika önce yapıldı.
Rüzgar doğudan 7 kt
Sıcaklık 14°C
Nem 33%
Basınç 1017 hPa
Görüş mesafesi 10 km veya daha fazla
1500 m altında bulut yok ve kümülonimbus yok

METAR: OSDI 221100Z 08007KT CAVOK 14/M02 Q1017

Saat: 14:24 (12:24 UTC)

Tahmin

Rapor saat 10:00 UTC de 2 saat ve 24 dakika önce yapıldı.
Ayın 22'si saat 12 UTC'den ayın 23'si saat 18 UTC'ye kadar geçerli Tahmin
Rüzgar doğu/kuzeydoğudan 12 kt
Görüş mesafesi 10 km veya daha fazla
3000 ft yükseklikte az bulutlu
Geçici
ayın 22'si saat 21 UTC'den ayın 23'si saat 08 UTC'ye kadar
Rüzgar değişken yönden 3 kt
Görüş mesafesi 10 km veya daha fazla
1500 m altında bulut yok ve kümülonimbus yok

TAF: OSDI 221000Z 2212/2318 06012KT 9999 FEW030 TEMPO 2221/2308 VRB03KT CAVOK

4.000'den fazla havaalanı için hava durumu gözlemleri ve tahminleri (METAR ve TAF raporları).

Kullanılabilir istasyonlar harita üzerinde sarı ve kırmızı noktalarla gösterilir.

İstasyonun adını görmek için fareyi noktanın üzerinde gezdirin.

Sonrasında hava gözlem ve tahminlerini görmek için tıklayın.

Haritayı değiştirmek için: yaklaştırmak için siyah artı işaretli yeşil düğmeye ve uzaklaştırmak için de eksi işaretli düğmeye hızla tıklayın; bitişik haritalar için yeşil okları kullanın.


METAR-TAF: